Time;durP1;ratioP1;P1;durP2;ratioP2;P2;SDS_P1;SDS_P2;PMS_P1;PMS_P2;Temp;Humidity;BMP_temperature;BMP_pressure;BME280_temperature;BME280_humidity;BME280_pressure;Samples;Min_cycle;Max_cycle;Signal;HPM_P1;HPM_P2
2023/03/31 00:01:09;;;;;;;0.90;0.90;;;;;;;25.12;34.08;98999.59;1897545;74;28087;-48
2023/03/31 00:04:08;;;;;;;1.00;1.00;;;;;;;25.11;34.08;98997.38;1897553;74;28062;-44
2023/03/31 00:06:47;;;;;;;1.20;1.10;;;;;;;25.11;34.10;99005.63;1879714;74;28155;-47
2023/03/31 00:09:36;;;;;;;1.00;1.00;;;;;;;25.12;34.10;99005.09;1879354;74;28101;-46
2023/03/31 00:12:24;;;;;;;1.40;1.10;;;;;;;25.09;34.13;99013.31;1883781;74;28105;-49
2023/03/31 00:15:13;;;;;;;1.10;1.02;;;;;;;25.13;34.10;99029.59;1877956;74;28097;-46
2023/03/31 00:18:01;;;;;;;1.10;1.05;;;;;;;25.11;34.13;99028.99;1893242;74;27958;-46
2023/03/31 00:20:51;;;;;;;1.00;1.00;;;;;;;25.10;34.19;99032.02;1888136;74;28024;-44
2023/03/31 00:23:43;;;;;;;1.10;1.10;;;;;;;25.10;34.21;99034.23;1886108;74;28381;-45
2023/03/31 00:26:32;;;;;;;0.95;0.95;;;;;;;25.09;34.25;99024.84;1883412;74;28042;-47
2023/03/31 00:29:21;;;;;;;1.10;1.10;;;;;;;25.09;34.28;99023.47;1893663;74;27941;-45
2023/03/31 00:32:10;;;;;;;1.40;0.90;;;;;;;25.08;34.32;99013.05;1888399;74;38339;-43
2023/03/31 00:35:01;;;;;;;0.93;0.93;;;;;;;25.07;34.32;99009.17;1878976;74;31046;-45
2023/03/31 00:37:49;;;;;;;0.90;0.90;;;;;;;25.06;34.31;99006.16;1897325;74;28011;-45
2023/03/31 00:40:39;;;;;;;0.98;0.98;;;;;;;25.07;34.31;99007.80;1892520;74;31971;-45
2023/03/31 00:43:33;;;;;;;1.85;1.15;;;;;;;25.04;34.36;99005.02;1886901;74;27954;-44
2023/03/31 00:46:28;;;;;;;1.00;0.90;;;;;;;25.04;34.32;98997.34;1886185;74;27972;-47
2023/03/31 00:49:25;;;;;;;0.82;0.82;;;;;;;25.02;34.38;99002.28;1885803;74;28034;-42
2023/03/31 00:52:17;;;;;;;1.00;1.00;;;;;;;25.00;34.41;98998.94;1887508;74;28074;-47
2023/03/31 00:55:09;;;;;;;1.03;1.03;;;;;;;24.99;34.42;98998.14;1891431;74;27943;-45
2023/03/31 00:58:00;;;;;;;0.77;0.77;;;;;;;24.99;34.43;99001.42;1886126;74;28102;-44
2023/03/31 01:00:53;;;;;;;0.75;0.70;;;;;;;25.00;34.44;99003.06;1880132;74;28182;-46
2023/03/31 01:03:44;;;;;;;0.80;0.80;;;;;;;25.01;34.41;99003.36;1896031;74;28096;-45
2023/03/31 01:06:33;;;;;;;0.70;0.70;;;;;;;24.97;34.46;98993.99;1893345;74;27970;-47
2023/03/31 01:09:24;;;;;;;1.75;0.90;;;;;;;24.98;34.49;98995.63;1887520;74;27922;-45
2023/03/31 01:12:16;;;;;;;0.85;0.85;;;;;;;24.97;34.46;98981.63;1886154;74;28003;-46
2023/03/31 01:15:06;;;;;;;0.80;0.80;;;;;;;24.97;34.46;98992.05;1886197;74;28012;-43
2023/03/31 01:17:56;;;;;;;1.00;1.00;;;;;;;24.97;34.46;98987.92;1889519;74;27992;-45
2023/03/31 01:21:18;;;;;;;1.07;1.00;;;;;;;24.97;34.45;98993.42;1852773;76;28073;-47
2023/03/31 01:24:34;;;;;;;1.00;1.00;;;;;;;24.97;34.47;98989.88;1822821;77;28223;-46
2023/03/31 01:27:32;;;;;;;0.80;0.80;;;;;;;24.93;34.50;98983.22;1830787;77;28252;-46
2023/03/31 01:30:38;;;;;;;1.00;1.00;;;;;;;24.89;34.61;98980.72;1827466;77;28132;-46
2023/03/31 01:33:44;;;;;;;2.00;0.90;;;;;;;24.91;34.64;98952.44;1839480;77;28286;-45
2023/03/31 01:39:09;;;;;;;1.00;0.88;;;;;;;24.94;34.64;98953.29;1940008;72;27863;-46
2023/03/31 01:42:00;;;;;;;1.00;1.00;;;;;;;24.92;34.62;98938.45;1884032;75;28086;-44
2023/03/31 01:45:00;;;;;;;1.02;1.02;;;;;;;24.89;34.60;98935.39;1893019;75;28193;-47
2023/03/31 01:47:57;;;;;;;1.10;0.90;;;;;;;24.89;34.62;98932.10;1891285;75;28159;-46
2023/03/31 01:50:50;;;;;;;1.75;0.90;;;;;;;24.90;34.62;98941.18;1891411;75;28076;-45
2023/03/31 01:54:00;;;;;;;1.17;0.93;;;;;;;24.88;34.63;98919.44;1887997;75;28322;-44
2023/03/31 01:57:00;;;;;;;0.80;0.80;;;;;;;24.89;34.61;98912.88;1887457;75;28013;-46
2023/03/31 02:00:00;;;;;;;0.98;0.98;;;;;;;24.88;34.62;98900.21;1883993;75;28084;-45
2023/03/31 02:02:58;;;;;;;1.07;0.82;;;;;;;24.88;34.68;98908.45;1890941;75;28057;-44
2023/03/31 02:05:59;;;;;;;0.70;0.70;;;;;;;24.85;34.66;98891.14;1877025;75;28062;-43
2023/03/31 02:08:52;;;;;;;0.70;0.70;;;;;;;24.86;34.70;98875.47;1880074;75;28077;-45
2023/03/31 02:11:43;;;;;;;0.93;0.93;;;;;;;24.89;34.71;98879.06;1880203;75;28150;-44
2023/03/31 02:14:33;;;;;;;1.00;0.90;;;;;;;24.86;34.70;98872.18;1885855;75;28084;-45
2023/03/31 02:17:31;;;;;;;0.90;0.80;;;;;;;24.89;34.68;98862.58;1891417;75;28134;-46
2023/03/31 02:20:19;;;;;;;0.83;0.83;;;;;;;24.88;34.68;98852.70;1869572;76;28081;-44
2023/03/31 02:23:08;;;;;;;1.10;1.00;;;;;;;24.88;34.64;98846.64;1870396;75;28502;-47
2023/03/31 02:26:06;;;;;;;0.80;0.80;;;;;;;24.91;34.64;98843.91;1884660;75;28105;-44
2023/03/31 02:28:55;;;;;;;1.02;0.93;;;;;;;24.90;34.63;98840.33;1883085;75;28087;-44
2023/03/31 02:32:07;;;;;;;1.20;1.20;;;;;;;24.88;34.67;98839.77;1894169;75;28188;-45
2023/03/31 02:34:56;;;;;;;0.80;0.80;;;;;;;24.90;34.63;98831.28;1891241;75;28084;-44
2023/03/31 02:37:48;;;;;;;0.95;0.85;;;;;;;24.87;34.70;98827.69;1891204;74;28011;-44
2023/03/31 02:40:35;;;;;;;0.88;0.88;;;;;;;24.87;34.72;98823.02;1888640;75;28040;-45
2023/03/31 02:43:24;;;;;;;0.82;0.82;;;;;;;24.87;34.70;98823.02;1883188;75;38301;-44
2023/03/31 02:46:12;;;;;;;1.02;1.00;;;;;;;24.89;34.72;98821.38;1880275;75;28138;-44
2023/03/31 02:49:04;;;;;;;0.98;0.90;;;;;;;24.89;34.74;98814.50;1879981;75;28150;-45
2023/03/31 02:52:05;;;;;;;1.30;0.80;;;;;;;24.88;34.80;98804.63;1882505;75;28065;-44
2023/03/31 02:55:16;;;;;;;0.80;0.80;;;;;;;24.86;34.79;98785.64;1849020;75;28048;-45
2023/03/31 02:58:17;;;;;;;0.78;0.78;;;;;;;24.85;34.86;98777.67;1886049;75;28102;-44
2023/03/31 03:01:24;;;;;;;0.90;0.90;;;;;;;24.82;34.90;98777.66;1875707;75;28037;-47
2023/03/31 03:04:34;;;;;;;1.15;1.02;;;;;;;24.83;34.94;98779.87;1879590;75;28451;-46
2023/03/31 03:07:41;;;;;;;0.80;0.80;;;;;;;24.81;35.01;98768.32;1879616;75;28061;-43
2023/03/31 03:10:49;;;;;;;0.88;0.88;;;;;;;24.80;35.00;98766.12;1874404;75;28221;-44
2023/03/31 03:13:42;;;;;;;0.80;0.80;;;;;;;24.80;35.01;98763.91;1890790;75;27996;-44
2023/03/31 03:16:34;;;;;;;0.85;0.85;;;;;;;24.80;35.04;98762.53;1881367;75;28140;-44
2023/03/31 03:19:24;;;;;;;0.90;0.80;;;;;;;24.80;35.01;98740.56;1868825;76;28185;-44
2023/03/31 03:22:12;;;;;;;0.70;0.70;;;;;;;24.81;34.99;98731.23;1878537;75;28031;-46
2023/03/31 03:25:01;;;;;;;0.70;0.70;;;;;;;24.82;35.01;98726.00;1879702;75;28056;-48
2023/03/31 03:27:51;;;;;;;0.78;0.78;;;;;;;24.83;34.98;98723.55;1881681;75;28128;-43
2023/03/31 03:30:39;;;;;;;0.70;0.70;;;;;;;24.82;34.97;98724.63;1883368;75;28157;-46
2023/03/31 03:33:28;;;;;;;0.80;0.80;;;;;;;24.81;35.04;98721.05;1892297;75;28107;-48
2023/03/31 03:36:17;;;;;;;0.75;0.75;;;;;;;24.83;34.99;98742.24;1890550;75;28048;-44
2023/03/31 03:39:07;;;;;;;0.80;0.80;;;;;;;24.83;34.98;98757.89;1887893;74;28042;-45
2023/03/31 03:41:55;;;;;;;0.82;0.82;;;;;;;24.84;34.96;98755.41;1870440;75;28049;-45
2023/03/31 03:44:43;;;;;;;0.72;0.72;;;;;;;24.85;34.95;98757.08;1893696;75;28067;-44
2023/03/31 03:47:32;;;;;;;0.72;0.72;;;;;;;24.82;34.89;98753.48;1890433;75;28026;-44
2023/03/31 03:50:20;;;;;;;0.80;0.80;;;;;;;24.83;34.87;98747.73;1875040;75;27997;-44
2023/03/31 03:53:08;;;;;;;0.80;0.80;;;;;;;24.84;34.94;98747.16;1881376;75;28058;-46
2023/03/31 03:55:58;;;;;;;0.93;0.93;;;;;;;24.83;34.96;98729.05;1867572;75;28027;-47
2023/03/31 03:58:46;;;;;;;1.12;1.05;;;;;;;24.82;35.00;98730.96;1879548;75;28129;-43
2023/03/31 04:01:34;;;;;;;0.80;0.80;;;;;;;24.83;35.02;98731.80;1884359;75;28192;-43
2023/03/31 04:04:23;;;;;;;0.80;0.80;;;;;;;24.81;35.05;98741.66;1867310;75;28036;-45
2023/03/31 04:07:11;;;;;;;0.90;0.90;;;;;;;24.82;35.07;98743.86;1879845;75;28089;-45
2023/03/31 04:10:00;;;;;;;0.80;0.80;;;;;;;24.83;35.02;98738.66;1868624;75;28104;-49
2023/03/31 04:12:49;;;;;;;0.90;0.90;;;;;;;24.81;35.05;98743.03;1871380;75;28001;-43
2023/03/31 04:15:37;;;;;;;0.80;0.80;;;;;;;24.81;35.11;98733.98;1871183;75;28197;-47
2023/03/31 04:18:26;;;;;;;0.80;0.80;;;;;;;24.83;35.09;98740.03;1879006;75;28038;-45
2023/03/31 04:21:21;;;;;;;0.80;0.80;;;;;;;24.82;35.11;98741.95;1886906;75;27986;-45
2023/03/31 04:24:06;;;;;;;0.70;0.70;;;;;;;24.82;35.09;98746.07;1869537;75;27979;-46
2023/03/31 04:26:55;;;;;;;0.90;0.90;;;;;;;24.81;35.10;98732.05;1901531;75;28049;-45
2023/03/31 04:29:53;;;;;;;0.80;0.80;;;;;;;24.82;35.17;98726.00;1887792;75;28110;-46
2023/03/31 04:32:35;;;;;;;0.80;0.80;;;;;;;24.82;35.15;98724.63;1886854;75;28050;-46
2023/03/31 04:35:25;;;;;;;0.87;0.87;;;;;;;24.81;35.18;98736.73;1857066;77;28191;-45
2023/03/31 04:38:17;;;;;;;0.78;0.78;;;;;;;24.81;35.17;98742.23;1876037;75;28050;-44
2023/03/31 04:41:06;;;;;;;0.83;0.83;;;;;;;24.82;35.16;98745.23;1867915;74;28123;-45
2023/03/31 04:43:54;;;;;;;0.88;0.88;;;;;;;24.82;35.17;98743.86;1883140;75;28159;-46
2023/03/31 04:46:43;;;;;;;1.20;0.90;;;;;;;24.82;35.17;98712.27;1881927;75;27973;-43
2023/03/31 04:49:32;;;;;;;0.90;0.90;;;;;;;24.81;35.13;98712.81;1882523;75;28146;-47
2023/03/31 04:52:21;;;;;;;0.70;0.70;;;;;;;24.82;35.15;98731.50;1890285;75;28029;-47
2023/03/31 04:55:10;;;;;;;0.80;0.80;;;;;;;24.81;35.17;98729.30;1886070;75;28040;-44
2023/03/31 04:57:59;;;;;;;1.10;0.70;;;;;;;24.79;35.19;98732.02;1868111;75;28088;-48
2023/03/31 05:00:48;;;;;;;0.72;0.72;;;;;;;24.79;35.23;98737.52;1895651;75;28150;-45
2023/03/31 05:03:36;;;;;;;0.83;0.53;;;;;;;24.80;35.24;98745.52;1878762;75;28041;-45
2023/03/31 05:06:24;;;;;;;1.07;1.07;;;;;;;24.82;35.22;98738.37;1885411;75;28260;-44
2023/03/31 05:09:13;;;;;;;1.70;1.07;;;;;;;24.82;35.21;98738.37;1866947;75;28090;-44
2023/03/31 05:12:01;;;;;;;0.98;0.98;;;;;;;24.82;35.18;98734.25;1879428;75;32113;-43
2023/03/31 05:14:49;;;;;;;0.70;0.70;;;;;;;24.79;35.20;98736.14;1878419;75;27975;-48
2023/03/31 05:17:38;;;;;;;0.70;0.70;;;;;;;24.80;35.22;98751.01;1883101;75;28001;-44
2023/03/31 05:20:26;;;;;;;0.90;0.77;;;;;;;24.81;35.19;98747.72;1867372;75;28456;-44
2023/03/31 05:23:14;;;;;;;0.70;0.70;;;;;;;24.80;35.19;98733.16;1879617;75;28580;-49
2023/03/31 05:26:03;;;;;;;0.80;0.80;;;;;;;24.80;35.30;98724.08;1888887;75;27983;-46
2023/03/31 05:28:53;;;;;;;0.85;0.85;;;;;;;24.79;35.40;98719.13;1881983;75;28022;-46
2023/03/31 05:31:41;;;;;;;0.70;0.70;;;;;;;24.80;35.35;98730.41;1867689;75;28080;-45
2023/03/31 05:34:29;;;;;;;0.80;0.80;;;;;;;24.80;35.33;98726.83;1877731;75;28103;-47
2023/03/31 05:37:18;;;;;;;0.90;0.90;;;;;;;24.81;35.29;98733.98;1874790;75;27978;-44
2023/03/31 05:40:09;;;;;;;0.82;0.82;;;;;;;24.81;35.22;98727.12;1881191;75;28015;-43
2023/03/31 05:42:58;;;;;;;0.95;0.95;;;;;;;24.79;35.14;98721.04;1867925;75;27995;-46
2023/03/31 05:45:46;;;;;;;0.70;0.70;;;;;;;24.75;34.93;98745.45;1879536;75;28204;-48
2023/03/31 05:48:36;;;;;;;0.70;0.70;;;;;;;24.77;35.02;98730.94;1872350;75;28100;-48
2023/03/31 05:51:25;;;;;;;1.20;0.88;;;;;;;24.79;35.08;98742.48;1874966;75;28216;-51
2023/03/31 05:54:14;;;;;;;0.80;0.80;;;;;;;24.74;34.74;98758.35;1862783;75;27999;-45
2023/03/31 05:57:03;;;;;;;1.00;0.80;;;;;;;24.67;34.10;98754.18;1883138;75;28092;-45
2023/03/31 05:59:51;;;;;;;0.85;0.78;;;;;;;24.64;33.92;98734.94;1882187;75;28105;-45
2023/03/31 06:02:40;;;;;;;0.60;0.60;;;;;;;24.66;33.96;98756.13;1878159;75;27996;-43
2023/03/31 06:05:31;;;;;;;0.60;0.60;;;;;;;24.66;34.15;98715.47;1885597;75;28022;-47
2023/03/31 06:08:19;;;;;;;0.90;0.80;;;;;;;24.68;34.23;98716.86;1888605;75;27990;-46
2023/03/31 06:11:10;;;;;;;3.98;1.00;;;;;;;24.69;34.28;98744.58;1870551;75;28095;-47
2023/03/31 06:13:58;;;;;;;1.00;0.90;;;;;;;24.72;34.28;98745.44;1879124;75;28090;-44
2023/03/31 06:16:47;;;;;;;0.70;0.70;;;;;;;24.71;34.31;98723.17;1867679;75;28522;-45
2023/03/31 06:19:35;;;;;;;0.70;0.70;;;;;;;24.72;34.35;98744.06;1882398;75;28104;-45
2023/03/31 06:22:24;;;;;;;0.80;0.80;;;;;;;24.74;34.38;98743.25;1869748;75;31955;-43
2023/03/31 06:25:12;;;;;;;1.17;1.05;;;;;;;24.71;34.41;98750.64;1879576;75;28481;-45
2023/03/31 06:28:01;;;;;;;0.82;0.82;;;;;;;24.72;34.47;98755.05;1867665;75;28209;-46
2023/03/31 06:30:50;;;;;;;2.10;0.88;;;;;;;24.73;34.49;98755.34;1883465;75;28282;-46
2023/03/31 06:33:38;;;;;;;1.95;0.70;;;;;;;24.70;34.66;98768.23;1876248;75;28036;-46
2023/03/31 06:36:27;;;;;;;0.90;0.90;;;;;;;24.69;34.76;98762.44;1895951;75;28219;-49
2023/03/31 06:39:15;;;;;;;2.60;0.90;;;;;;;24.69;34.85;98763.01;1855160;77;28158;-46
2023/03/31 06:42:04;;;;;;;0.70;0.70;;;;;;;24.70;34.88;98761.36;1884480;74;28048;-48
2023/03/31 06:44:54;;;;;;;1.60;0.70;;;;;;;24.68;34.93;98748.98;1879939;75;28099;-45
2023/03/31 06:47:43;;;;;;;0.70;0.70;;;;;;;24.70;34.98;98747.62;1896259;75;28100;-48
2023/03/31 06:50:31;;;;;;;2.60;1.00;;;;;;;24.72;35.02;98744.59;1889857;75;28053;-47
2023/03/31 06:53:20;;;;;;;0.70;0.70;;;;;;;24.72;35.04;98758.34;1885666;75;28140;-52
2023/03/31 06:56:09;;;;;;;1.05;0.95;;;;;;;24.72;35.07;98755.59;1868689;76;28074;-49
2023/03/31 06:58:58;;;;;;;0.65;0.65;;;;;;;24.74;35.05;98738.29;1890600;75;28260;-48
2023/03/31 07:01:47;;;;;;;0.85;0.80;;;;;;;24.73;35.05;98744.36;1868576;76;28229;-50
2023/03/31 07:04:35;;;;;;;0.78;0.78;;;;;;;24.71;35.08;98714.92;1882001;75;28033;-51
2023/03/31 07:07:23;;;;;;;1.10;0.80;;;;;;;24.72;35.09;98728.13;1893225;74;28582;-49
2023/03/31 07:10:11;;;;;;;0.60;0.60;;;;;;;24.71;35.07;98730.61;1889001;75;28127;-46
2023/03/31 07:13:00;;;;;;;1.75;0.72;;;;;;;24.72;35.09;98734.45;1868177;76;28092;-45
2023/03/31 07:15:49;;;;;;;0.80;0.80;;;;;;;24.71;35.09;98746.52;1880115;75;28317;-47
2023/03/31 07:18:40;;;;;;;0.80;0.80;;;;;;;24.70;35.07;98742.13;1879053;75;30060;-46
2023/03/31 07:21:27;;;;;;;0.85;0.70;;;;;;;24.70;35.12;98725.66;1878533;75;28116;-50
2023/03/31 07:24:15;;;;;;;0.53;0.53;;;;;;;24.69;35.07;98718.49;1884795;75;28043;-47
2023/03/31 07:27:04;;;;;;;0.85;0.85;;;;;;;24.72;35.11;98733.08;1873994;75;28083;-46
2023/03/31 07:29:53;;;;;;;1.50;0.60;;;;;;;24.73;35.05;98728.42;1890304;75;28225;-45
2023/03/31 07:32:42;;;;;;;0.70;0.70;;;;;;;24.73;35.08;98710.02;1889315;75;28064;-45
2023/03/31 07:35:30;;;;;;;0.60;0.60;;;;;;;24.71;35.10;98709.44;1885240;75;28572;-47
2023/03/31 07:38:19;;;;;;;1.07;0.70;;;;;;;24.71;35.07;98701.20;1889748;75;28187;-48
2023/03/31 07:41:13;;;;;;;0.98;0.60;;;;;;;24.70;35.09;98678.96;1871777;75;28123;-49
2023/03/31 07:44:01;;;;;;;0.63;0.63;;;;;;;24.71;35.08;98701.77;1886128;74;28215;-47
2023/03/31 07:46:49;;;;;;;0.68;0.68;;;;;;;24.70;35.09;98700.10;1893271;74;27999;-47
2023/03/31 07:49:37;;;;;;;0.80;0.80;;;;;;;24.72;35.11;98701.48;1888635;74;28034;-51
2023/03/31 07:52:26;;;;;;;0.70;0.70;;;;;;;24.72;35.08;98706.15;1888682;74;28548;-48
2023/03/31 07:55:16;;;;;;;0.53;0.53;;;;;;;24.71;35.07;98698.45;1890965;74;28053;-47
2023/03/31 07:58:04;;;;;;;1.70;0.70;;;;;;;24.70;35.12;98687.20;1878292;74;28128;-45
2023/03/31 08:00:52;;;;;;;0.68;0.68;;;;;;;24.72;35.08;98737.20;1891583;74;28221;-48
2023/03/31 08:03:40;;;;;;;0.65;0.65;;;;;;;24.72;35.07;98744.59;1856383;76;28317;-48
2023/03/31 08:06:30;;;;;;;0.70;0.70;;;;;;;24.72;35.12;98754.22;1860933;76;28204;-47
2023/03/31 08:09:21;;;;;;;0.65;0.65;;;;;;;24.71;35.14;98761.63;1857635;76;28109;-46
2023/03/31 08:12:10;;;;;;;1.70;0.72;;;;;;;24.72;35.08;98756.42;1849693;76;28198;-48
2023/03/31 08:14:58;;;;;;;0.60;0.60;;;;;;;24.72;35.11;98768.78;1868737;74;28516;-47
2023/03/31 08:17:47;;;;;;;0.70;0.60;;;;;;;24.71;35.10;98765.74;1874006;74;28177;-48
2023/03/31 08:20:35;;;;;;;0.50;0.50;;;;;;;24.71;35.13;98750.64;1860778;76;28235;-47
2023/03/31 08:23:23;;;;;;;1.97;0.90;;;;;;;24.72;35.14;98756.42;1870113;76;28306;-47
2023/03/31 08:26:17;;;;;;;0.80;0.80;;;;;;;24.71;35.15;98764.37;1866155;76;28198;-46
2023/03/31 08:29:05;;;;;;;1.07;0.75;;;;;;;24.71;35.15;98769.86;1846060;77;28190;-46
2023/03/31 08:31:54;;;;;;;0.68;0.60;;;;;;;24.74;35.14;98791.85;1876253;76;38432;-47
2023/03/31 08:34:44;;;;;;;0.60;0.60;;;;;;;24.71;35.13;98784.97;1866081;76;28318;-45
2023/03/31 08:37:33;;;;;;;0.60;0.60;;;;;;;24.72;35.17;98788.01;1859950;76;28288;-48
2023/03/31 08:40:27;;;;;;;0.70;0.60;;;;;;;24.71;35.16;98791.83;1859929;76;28164;-48
2023/03/31 08:43:22;;;;;;;0.70;0.70;;;;;;;24.72;35.16;98779.77;1856240;76;28592;-46
2023/03/31 08:46:16;;;;;;;0.80;0.80;;;;;;;24.72;35.15;98785.26;1856364;76;28176;-49
2023/03/31 08:49:05;;;;;;;0.70;0.70;;;;;;;24.71;35.16;98786.34;1855695;76;28239;-50
2023/03/31 08:51:59;;;;;;;0.80;0.60;;;;;;;24.71;35.18;98762.99;1862343;76;28186;-45
2023/03/31 08:54:51;;;;;;;0.50;0.50;;;;;;;24.72;35.19;98772.91;1866032;76;28169;-47
2023/03/31 08:57:45;;;;;;;0.80;0.80;;;;;;;24.73;35.16;98788.30;1873858;76;28055;-47
2023/03/31 09:00:36;;;;;;;0.93;0.93;;;;;;;24.73;35.15;98784.72;1854562;76;28176;-48
2023/03/31 09:03:39;;;;;;;0.85;0.85;;;;;;;24.72;35.16;98796.25;1864837;76;28658;-45
2023/03/31 09:06:36;;;;;;;0.70;0.70;;;;;;;24.72;35.13;98797.62;1862783;76;28257;-45
2023/03/31 09:09:45;;;;;;;0.60;0.60;;;;;;;24.70;35.14;98795.69;1844994;74;28135;-50
2023/03/31 09:12:56;;;;;;;0.78;0.78;;;;;;;24.70;35.19;98796.23;1846368;76;28236;-47
2023/03/31 09:16:00;;;;;;;0.70;0.70;;;;;;;24.70;35.19;98816.29;1845646;77;28188;-45
2023/03/31 09:18:49;;;;;;;0.65;0.65;;;;;;;24.60;35.18;98791.50;1867497;76;28204;-46
2023/03/31 09:21:49;;;;;;;0.90;0.90;;;;;;;24.67;35.20;98822.30;1867603;76;28271;-48
2023/03/31 09:24:44;;;;;;;0.80;0.80;;;;;;;24.67;35.26;98801.70;1866706;76;28240;-49
2023/03/31 09:27:31;;;;;;;0.90;0.60;;;;;;;24.69;35.20;98813.81;1854957;76;28215;-49
2023/03/31 09:30:25;;;;;;;0.80;0.80;;;;;;;24.69;35.20;98787.73;1846312;74;28279;-49
2023/03/31 09:33:31;;;;;;;0.65;0.65;;;;;;;24.70;35.18;98792.11;1853481;76;28176;-47
2023/03/31 09:36:21;;;;;;;0.60;0.60;;;;;;;24.73;35.14;98787.47;1856623;76;28270;-48
2023/03/31 09:39:13;;;;;;;0.88;0.88;;;;;;;24.71;35.18;98790.45;1857897;76;28350;-47
2023/03/31 09:42:02;;;;;;;1.52;0.80;;;;;;;24.73;35.17;98784.72;1860479;76;28115;-45
2023/03/31 09:44:50;;;;;;;0.88;0.88;;;;;;;24.73;35.14;98771.82;1856267;76;28115;-48
2023/03/31 09:47:47;;;;;;;0.75;0.70;;;;;;;24.75;35.14;98785.28;1856594;76;28199;-45
2023/03/31 09:50:42;;;;;;;0.78;0.78;;;;;;;24.75;35.13;98766.05;1853603;76;28205;-44
2023/03/31 09:53:36;;;;;;;0.80;0.80;;;;;;;24.77;35.14;98769.92;1862125;76;28106;-47
2023/03/31 09:56:36;;;;;;;0.90;0.90;;;;;;;24.74;35.17;98776.20;1877770;76;28103;-46
2023/03/31 09:59:33;;;;;;;0.70;0.70;;;;;;;24.76;35.16;98800.71;1856819;76;28143;-48
2023/03/31 10:02:34;;;;;;;0.80;0.80;;;;;;;24.75;35.17;98763.30;1856433;76;28164;-49
2023/03/31 10:05:44;;;;;;;0.70;0.70;;;;;;;24.76;35.13;98756.77;1856739;76;28215;-48
2023/03/31 10:08:31;;;;;;;0.57;0.57;;;;;;;24.76;35.19;98771.88;1856629;76;28263;-46
2023/03/31 10:11:20;;;;;;;1.15;0.70;;;;;;;24.72;35.17;98752.30;1861287;76;28247;-47
2023/03/31 10:14:14;;;;;;;0.78;0.70;;;;;;;24.74;35.21;98763.84;1856971;76;28130;-47
2023/03/31 10:17:08;;;;;;;0.70;0.70;;;;;;;24.77;35.17;98747.95;1850007;76;28145;-46
2023/03/31 10:20:04;;;;;;;0.60;0.60;;;;;;;24.78;35.17;98756.48;1865522;76;28111;-48
2023/03/31 10:22:52;;;;;;;1.80;0.85;;;;;;;24.77;35.17;98750.16;1864762;76;28145;-47
2023/03/31 10:25:41;;;;;;;0.72;0.72;;;;;;;24.78;35.20;98738.63;1858536;76;28125;-46
2023/03/31 10:28:32;;;;;;;0.85;0.70;;;;;;;24.80;35.14;98733.16;1849323;76;28236;-49
2023/03/31 10:31:22;;;;;;;0.80;0.80;;;;;;;24.81;35.13;98733.98;1866937;76;28188;-49
2023/03/31 10:34:15;;;;;;;0.55;0.55;;;;;;;24.80;35.12;98739.19;1863267;76;28253;-48
2023/03/31 10:37:06;;;;;;;0.70;0.70;;;;;;;24.81;35.12;98732.61;1851998;76;28227;-45
2023/03/31 10:40:06;;;;;;;0.72;0.72;;;;;;;24.82;35.13;98720.52;1855089;76;28228;-44
2023/03/31 10:43:10;;;;;;;0.70;0.70;;;;;;;24.81;35.16;98734.78;1873281;76;32238;-45
2023/03/31 10:46:00;;;;;;;0.75;0.75;;;;;;;24.77;35.17;98711.70;1861895;76;28080;-44
2023/03/31 10:48:51;;;;;;;1.20;0.70;;;;;;;24.78;35.24;98702.92;1855847;76;28064;-46
2023/03/31 10:51:43;;;;;;;0.83;0.83;;;;;;;24.79;35.22;98708.68;1850684;76;28114;-45
2023/03/31 10:54:31;;;;;;;0.80;0.80;;;;;;;24.81;35.17;98701.83;1838896;76;28275;-40
2023/03/31 10:57:23;;;;;;;1.10;0.60;;;;;;;24.85;35.17;98695.27;1846338;77;28180;-42
2023/03/31 11:00:14;;;;;;;0.62;0.62;;;;;;;24.85;35.13;98694.72;1837289;76;38667;-42
2023/03/31 11:03:28;;;;;;;0.80;0.80;;;;;;;24.86;35.08;98679.88;1851313;76;28117;-43
2023/03/31 11:06:31;;;;;;;1.02;0.93;;;;;;;24.87;35.06;98678.80;1824391;76;28173;-45
2023/03/31 11:09:35;;;;;;;3.67;0.82;;;;;;;24.82;35.22;98675.19;1832388;75;28298;-44
2023/03/31 11:12:55;;;;;;;0.63;0.63;;;;;;;24.83;35.15;98662.58;1846296;77;28160;-44
2023/03/31 11:15:58;;;;;;;2.10;1.10;;;;;;;24.85;35.16;98637.58;1846559;77;28736;-41
2023/03/31 11:18:53;;;;;;;0.97;0.90;;;;;;;24.82;35.29;98647.72;1858135;76;28274;-43
2023/03/31 11:21:56;;;;;;;1.40;1.40;;;;;;;24.84;35.21;98658.72;1848909;77;28117;-42
2023/03/31 11:25:13;;;;;;;1.67;1.57;;;;;;;24.84;33.98;98626.30;1846975;76;28245;-42
2023/03/31 11:28:25;;;;;;;3.42;1.90;;;;;;;24.84;32.95;98609.81;1840901;77;28204;-43
2023/03/31 11:31:33;;;;;;;1.85;1.75;;;;;;;24.85;31.74;98608.19;1827583;76;28246;-40
2023/03/31 11:34:43;;;;;;;2.70;1.50;;;;;;;24.81;31.77;98614.50;1868281;76;28316;-41
2023/03/31 11:37:51;;;;;;;2.72;1.77;;;;;;;24.84;31.76;98595.53;1844670;77;28189;-42
2023/03/31 11:40:59;;;;;;;4.70;1.80;;;;;;;24.85;32.31;98596.38;1854840;76;28171;-46
2023/03/31 11:43:51;;;;;;;1.70;1.60;;;;;;;24.82;31.32;98601.02;1841600;77;28159;-41
2023/03/31 11:46:45;;;;;;;1.90;1.70;;;;;;;24.84;31.32;98597.45;1851730;75;28171;-41
2023/03/31 11:49:37;;;;;;;3.87;1.70;;;;;;;24.88;31.27;98583.48;1884211;75;28181;-42
2023/03/31 11:52:32;;;;;;;3.40;1.98;;;;;;;24.93;30.37;98565.60;1882189;75;28271;-40
2023/03/31 11:55:24;;;;;;;1.97;1.77;;;;;;;24.93;29.98;98581.55;1870972;75;28172;-40
2023/03/31 11:58:18;;;;;;;1.70;1.60;;;;;;;24.92;30.12;98574.42;1884059;75;28258;-41
2023/03/31 12:01:15;;;;;;;1.92;1.82;;;;;;;24.93;30.07;98561.48;1849709;76;28250;-41
2023/03/31 12:04:28;;;;;;;1.85;1.75;;;;;;;24.94;29.50;98590.62;1879427;75;28164;-40
2023/03/31 12:07:31;;;;;;;2.02;1.55;;;;;;;24.94;30.21;98543.91;1862626;75;28582;-42
2023/03/31 12:10:22;;;;;;;1.65;1.55;;;;;;;24.95;30.65;98567.55;1859715;75;28229;-40
2023/03/31 12:13:19;;;;;;;2.70;1.70;;;;;;;24.96;30.97;98552.70;1870003;75;28309;-41
2023/03/31 12:16:31;;;;;;;3.55;1.80;;;;;;;24.97;31.33;98568.91;1868995;75;28307;-42
2023/03/31 12:19:38;;;;;;;1.87;1.77;;;;;;;24.98;31.29;98563.70;1851575;77;28203;-41
2023/03/31 12:22:29;;;;;;;1.70;1.60;;;;;;;24.96;31.28;98559.03;1864756;75;28154;-41
2023/03/31 12:25:29;;;;;;;2.05;1.77;;;;;;;24.95;31.27;98549.12;1823093;78;28408;-42
2023/03/31 12:28:15;;;;;;;1.75;1.62;;;;;;;24.96;31.30;98520.56;1803865;78;28397;-41
2023/03/31 12:31:06;;;;;;;1.70;1.53;;;;;;;24.97;31.27;98542.80;1821396;78;28386;-42
2023/03/31 12:34:00;;;;;;;1.62;1.52;;;;;;;24.98;31.24;98497.76;1799484;78;28307;-41
2023/03/31 12:36:54;;;;;;;2.22;2.00;;;;;;;24.99;31.14;98565.91;1825981;78;30400;-41
2023/03/31 12:39:48;;;;;;;3.10;1.83;;;;;;;24.98;31.25;98542.27;1808972;78;28282;-42
2023/03/31 12:42:51;;;;;;;1.57;1.47;;;;;;;24.99;31.35;98542.55;1810538;78;28379;-41
2023/03/31 12:45:43;;;;;;;1.73;1.50;;;;;;;25.00;31.34;98540.89;1812434;78;28581;-40
2023/03/31 12:48:37;;;;;;;2.08;1.87;;;;;;;24.99;31.26;98521.94;1810134;78;28347;-42
2023/03/31 12:51:56;;;;;;;1.80;1.70;;;;;;;24.94;31.27;98494.46;1804606;78;28390;-42
2023/03/31 12:54:53;;;;;;;1.80;1.70;;;;;;;25.01;31.29;98470.28;1802835;77;28380;-42
2023/03/31 12:57:41;;;;;;;2.08;1.80;;;;;;;24.99;31.26;98502.71;1797885;79;28329;-40
2023/03/31 13:00:29;;;;;;;2.92;1.70;;;;;;;25.00;31.27;98498.84;1847923;76;28333;-41
2023/03/31 13:03:42;;;;;;;4.42;1.67;;;;;;;25.01;31.33;98499.14;1868547;76;28401;-40
2023/03/31 13:06:33;;;;;;;1.70;1.60;;;;;;;25.01;31.28;98484.86;1849588;76;28131;-41
2023/03/31 13:09:40;;;;;;;2.70;1.67;;;;;;;25.01;31.34;98482.66;1856832;74;28236;-41
2023/03/31 13:12:31;;;;;;;1.47;1.37;;;;;;;25.01;31.40;98480.73;1857004;76;28148;-42
2023/03/31 13:15:21;;;;;;;2.00;1.90;;;;;;;25.00;31.32;98474.12;1842432;76;28251;-40
2023/03/31 13:18:12;;;;;;;1.62;1.52;;;;;;;25.02;31.43;98467.83;1836060;77;28242;-40
2023/03/31 13:21:07;;;;;;;1.60;1.50;;;;;;;25.02;31.40;98467.83;1853099;76;28177;-40
2023/03/31 13:24:01;;;;;;;1.70;1.60;;;;;;;25.02;31.45;98463.70;1848214;76;28402;-41
2023/03/31 13:26:52;;;;;;;1.80;1.70;;;;;;;25.02;31.52;98459.58;1847264;76;28811;-40
2023/03/31 13:29:45;;;;;;;1.65;1.55;;;;;;;25.04;31.51;98464.25;1866893;74;28256;-41
2023/03/31 13:32:33;;;;;;;1.90;1.80;;;;;;;25.03;31.49;98465.34;1869147;76;28143;-41
2023/03/31 13:35:27;;;;;;;1.67;1.50;;;;;;;25.07;31.52;98467.80;1868973;76;28160;-42
2023/03/31 13:38:36;;;;;;;2.80;1.70;;;;;;;25.07;31.59;98465.05;1847149;76;28204;-41